Time;durP1;ratioP1;P1;durP2;ratioP2;P2;SDS_P1;SDS_P2;PMS_P1;PMS_P2;Temp;Humidity;BMP_temperature;BMP_pressure;BME280_temperature;BME280_humidity;BME280_pressure;Samples;Min_cycle;Max_cycle;Signal;HPM_P1;HPM_P2
2022/02/12 00:00:20;;;;;;;;;;;;;;;-0.76;100.00;99223.42;1723992;81;21102;-69
2022/02/12 00:02:48;;;;;;;;;;;;;;;-0.74;100.00;99224.05;1723073;81;20496;-70
2022/02/12 00:05:17;;;;;;;;;;;;;;;-0.73;100.00;99229.15;1725975;81;20144;-69
2022/02/12 00:07:45;;;;;;;;;;;;;;;-0.70;100.00;99234.55;1720205;81;20466;-68
2022/02/12 00:10:11;;;;;;;;;;;;;;;-0.70;100.00;99233.22;1729947;80;20323;-69
2022/02/12 00:12:38;;;;;;;;;;;;;;;-0.71;100.00;99228.46;1753799;80;21145;-69
2022/02/12 00:15:06;;;;;;;;;;;;;;;-0.71;100.00;99228.46;1749788;79;20170;-68
2022/02/12 00:17:36;;;;;;;;;;;;;;;-0.74;100.00;99224.86;1731758;81;20428;-68
2022/02/12 00:20:04;;;;;;;;;;;;;;;-0.75;100.00;99227.20;1737246;81;20739;-68
2022/02/12 00:22:31;;;;;;;;;;;;;;;-0.73;100.00;99233.09;1728382;80;20095;-68
2022/02/12 00:24:58;;;;;;;;;;;;;;;-0.73;100.00;99233.09;1728938;81;21214;-68
2022/02/12 00:27:26;;;;;;;;;;;;;;;-0.72;100.00;99237.35;1732563;81;20130;-70
2022/02/12 00:29:53;;;;;;;;;;;;;;;-0.69;100.00;99238.29;1732378;81;20441;-69
2022/02/12 00:32:19;;;;;;;;;;;;;;;-0.71;100.00;99236.37;1727532;81;20094;-69
2022/02/12 00:34:46;;;;;;;;;;;;;;;-0.73;100.00;99237.56;1737894;81;20144;-68
2022/02/12 00:37:13;;;;;;;;;;;;;;;-0.76;100.00;99240.08;1735380;81;21141;-69
2022/02/12 00:39:41;;;;;;;;;;;;;;;-0.76;100.00;99236.12;1732379;80;20657;-69
2022/02/12 00:42:08;;;;;;;;;;;;;;;-0.75;100.00;99236.42;1737810;80;20167;-68
2022/02/12 00:44:35;;;;;;;;;;;;;;;-0.74;100.00;99237.23;1733423;80;20130;-68
2022/02/12 00:47:02;;;;;;;;;;;;;;;-0.72;100.00;99237.86;1735626;80;20111;-66
2022/02/12 00:49:29;;;;;;;;;;;;;;;-0.73;100.00;99243.64;1730714;79;21205;-68
2022/02/12 00:51:56;;;;;;;;;;;;;;;-0.73;100.00;99239.69;1731431;81;20159;-66
2022/02/12 00:54:22;;;;;;;;;;;;;;;-0.72;100.00;99237.35;1733823;81;20222;-69
2022/02/12 00:59:48;;;;;;;;;;;;;;;-0.75;100.00;99237.73;1677864;83;20146;-67
2022/02/12 01:02:15;;;;;;;;;;;;;;;-0.77;100.00;99236.30;1685117;84;21171;-67
2022/02/12 01:04:42;;;;;;;;;;;;;;;-0.77;100.00;99253.42;1690584;83;20200;-68
2022/02/12 01:07:08;;;;;;;;;;;;;;;-0.77;100.00;99259.50;1689562;83;20101;-68
2022/02/12 01:09:37;;;;;;;;;;;;;;;-0.74;100.00;99267.03;1707407;83;20156;-70
2022/02/12 01:12:04;;;;;;;;;;;;;;;-0.73;100.00;99272.63;1714899;82;20202;-67
2022/02/12 01:14:31;;;;;;;;;;;;;;;-0.72;100.00;99268.98;1710214;82;21987;-67
2022/02/12 01:16:58;;;;;;;;;;;;;;;-0.72;100.00;99266.34;1717744;82;20261;-68
2022/02/12 01:19:24;;;;;;;;;;;;;;;-0.71;100.00;99279.86;1713411;82;20252;-69
2022/02/12 01:21:51;;;;;;;;;;;;;;;-0.69;100.00;99275.70;1714441;82;20160;-68
2022/02/12 01:24:17;;;;;;;;;;;;;;;-0.70;100.00;99281.48;1709080;83;20172;-70
2022/02/12 01:26:44;;;;;;;;;;;;;;;-0.68;100.00;99287.89;1715097;82;21186;-70
2022/02/12 01:29:10;;;;;;;;;;;;;;;-0.67;100.00;99292.14;1714738;82;20168;-66
2022/02/12 01:31:37;;;;;;;;;;;;;;;-0.68;100.00;99301.88;1718001;82;20125;-70
2022/02/12 01:34:04;;;;;;;;;;;;;;;-0.68;100.00;99302.39;1712152;82;20740;-70
2022/02/12 01:36:31;;;;;;;;;;;;;;;-0.73;100.00;99304.27;1688863;83;20137;-68
2022/02/12 01:38:58;;;;;;;;;;;;;;;-0.73;100.00;99319.27;1714058;82;21158;-70
2022/02/12 01:41:24;;;;;;;;;;;;;;;-0.75;100.00;99329.98;1714918;82;20281;-67
2022/02/12 01:43:51;;;;;;;;;;;;;;;-0.78;100.00;99340.91;1715431;82;20461;-69
2022/02/12 01:46:17;;;;;;;;;;;;;;;-0.81;100.00;99342.56;1713707;82;20140;-69
2022/02/12 01:48:44;;;;;;;;;;;;;;;-0.80;100.00;99348.68;1713734;82;20189;-69
2022/02/12 01:51:11;;;;;;;;;;;;;;;-0.83;100.00;99357.77;1713005;82;21122;-69
2022/02/12 01:53:37;;;;;;;;;;;;;;;-0.84;100.00;99370.62;1711808;82;20525;-69
2022/02/12 01:56:06;;;;;;;;;;;;;;;-0.84;100.00;99370.62;1719960;80;20448;-69
2022/02/12 01:58:33;;;;;;;;;;;;;;;-0.87;100.00;99370.48;1742514;81;20998;-68
2022/02/12 02:00:59;;;;;;;;;;;;;;;-0.86;100.00;99376.56;1749815;81;20213;-72
2022/02/12 02:03:26;;;;;;;;;;;;;;;-0.87;100.00;99379.70;1745262;80;21903;-70
2022/02/12 02:05:55;;;;;;;;;;;;;;;-0.87;100.00;99388.93;1742548;80;20183;-68
2022/02/12 02:08:22;;;;;;;;;;;;;;;-0.88;100.00;99396.53;1748306;81;20083;-69
2022/02/12 02:10:51;;;;;;;;;;;;;;;-0.87;100.00;99411.84;1726959;81;20148;-70
2022/02/12 02:13:24;;;;;;;;;;;;;;;-0.88;100.00;99420.25;1725333;81;20148;-70
2022/02/12 02:15:51;;;;;;;;;;;;;;;-0.86;100.00;99430.59;1724975;82;20751;-69
2022/02/12 02:18:18;;;;;;;;;;;;;;;-0.85;100.00;99436.70;1723065;81;20095;-68
2022/02/12 02:20:44;;;;;;;;;;;;;;;-0.85;100.00;99456.47;1721699;81;20187;-70
2022/02/12 02:23:11;;;;;;;;;;;;;;;-0.85;100.00;99461.23;1717975;81;20179;-68
2022/02/12 02:25:39;;;;;;;;;;;;;;;-0.84;100.00;99466.80;1720092;81;20151;-69
2022/02/12 02:28:06;;;;;;;;;;;;;;;-0.85;100.00;99479.67;1722491;81;21129;-68
2022/02/12 02:30:32;;;;;;;;;;;;;;;-0.84;100.00;99491.84;1721913;81;20111;-68
2022/02/12 02:32:59;;;;;;;;;;;;;;;-0.84;100.00;99493.66;1720583;81;20143;-66
2022/02/12 02:35:26;;;;;;;;;;;;;;;-0.86;100.00;99496.47;1719969;82;20196;-66
2022/02/12 02:37:53;;;;;;;;;;;;;;;-0.86;100.00;99504.38;1716127;81;20466;-68
2022/02/12 02:40:21;;;;;;;;;;;;;;;-0.84;100.00;99511.61;1716557;82;21085;-66
2022/02/12 02:42:49;;;;;;;;;;;;;;;-0.85;100.00;99516.57;1719635;82;20083;-65
2022/02/12 02:45:15;;;;;;;;;;;;;;;-0.87;100.00;99522.52;1722215;81;20175;-67
2022/02/12 02:47:43;;;;;;;;;;;;;;;-0.85;100.00;99535.52;1726339;81;20134;-68
2022/02/12 02:56:05;;;;;;;;;;;;;;;-0.90;100.00;99550.05;1715855;81;20416;-66
2022/02/12 02:58:37;;;;;;;;;;;;;;;-0.90;100.00;99564.54;1720180;82;20147;-66
2022/02/12 03:01:10;;;;;;;;;;;;;;;-0.90;100.00;99565.86;1718172;82;20110;-68
2022/02/12 03:03:39;;;;;;;;;;;;;;;-0.90;100.00;99575.59;1720769;81;20465;-67
2022/02/12 03:06:06;;;;;;;;;;;;;;;-0.91;100.00;99572.61;1720808;81;21167;-68
2022/02/12 03:08:33;;;;;;;;;;;;;;;-0.92;100.00;99595.52;1721096;81;20087;-67
2022/02/12 03:10:59;;;;;;;;;;;;;;;-0.93;100.00;99597.00;1738119;80;20202;-67
2022/02/12 03:13:26;;;;;;;;;;;;;;;-0.95;100.00;99601.15;1745053;80;20098;-68
2022/02/12 03:15:54;;;;;;;;;;;;;;;-0.93;100.00;99600.95;1748683;80;20126;-67
2022/02/12 03:18:20;;;;;;;;;;;;;;;-0.91;100.00;99626.63;1745393;80;21126;-67
2022/02/12 03:20:47;;;;;;;;;;;;;;;-0.91;100.00;99634.06;1745172;82;20114;-68
2022/02/12 03:23:13;;;;;;;;;;;;;;;-0.89;100.00;99643.09;1745263;80;20182;-68
2022/02/12 03:25:40;;;;;;;;;;;;;;;-0.89;100.00;99649.67;1749031;81;20110;-69
2022/02/12 03:28:06;;;;;;;;;;;;;;;-0.88;100.00;99651.33;1746225;80;20098;-68
2022/02/12 03:30:36;;;;;;;;;;;;;;;-0.87;100.00;99656.91;1741801;80;21159;-67
2022/02/12 03:33:07;;;;;;;;;;;;;;;-0.88;100.00;99661.88;1744360;80;20117;-68
2022/02/12 03:35:34;;;;;;;;;;;;;;;-0.87;100.00;99665.63;1742762;80;20166;-69
2022/02/12 03:38:12;;;;;;;;;;;;;;;-0.85;100.00;99672.05;1741920;80;20110;-62
2022/02/12 03:40:42;;;;;;;;;;;;;;;-0.85;100.00;99666.78;1740234;81;20549;-65
2022/02/12 03:43:09;;;;;;;;;;;;;;;-0.84;100.00;99675.50;1747979;81;21195;-69
2022/02/12 03:45:36;;;;;;;;;;;;;;;-0.85;100.00;99679.96;1745288;80;20145;-67
2022/02/12 03:48:02;;;;;;;;;;;;;;;-0.84;100.00;99685.55;1743086;80;20082;-66
2022/02/12 03:50:31;;;;;;;;;;;;;;;-0.86;100.00;99679.63;1743225;80;20515;-67
2022/02/12 03:53:02;;;;;;;;;;;;;;;-0.85;100.00;99687.05;1748233;80;20210;-65
2022/02/12 03:55:29;;;;;;;;;;;;;;;-0.86;100.00;99687.53;1742559;80;21120;-70
2022/02/12 03:57:56;;;;;;;;;;;;;;;-0.85;100.00;99692.33;1744457;81;20139;-67
2022/02/12 04:00:23;;;;;;;;;;;;;;;-0.87;100.00;99694.63;1746505;81;20142;-67
2022/02/12 04:02:54;;;;;;;;;;;;;;;-0.88;100.00;99700.90;1747024;80;20134;-68
2022/02/12 04:05:21;;;;;;;;;;;;;;;-0.87;100.00;99702.53;1736905;80;20198;-67
2022/02/12 04:07:50;;;;;;;;;;;;;;;-0.85;100.00;99702.36;1738106;80;20099;-67
2022/02/12 04:10:17;;;;;;;;;;;;;;;-0.87;100.00;99702.53;1743006;80;20143;-68
2022/02/12 04:12:44;;;;;;;;;;;;;;;-0.85;100.00;99708.14;1736366;82;20506;-67
2022/02/12 04:15:12;;;;;;;;;;;;;;;-0.87;100.00;99707.80;1735889;82;20141;-66
2022/02/12 04:17:38;;;;;;;;;;;;;;;-0.86;100.00;99715.20;1735958;81;20125;-65
2022/02/12 04:20:08;;;;;;;;;;;;;;;-0.85;100.00;99719.49;1728359;82;21207;-68
2022/02/12 04:22:39;;;;;;;;;;;;;;;-0.84;100.00;99726.89;1731846;81;20122;-67
2022/02/12 04:25:08;;;;;;;;;;;;;;;-0.85;100.00;99730.03;1728699;81;20126;-68
2022/02/12 04:27:35;;;;;;;;;;;;;;;-0.86;100.00;99733.64;1730135;81;20115;-68
2022/02/12 04:30:02;;;;;;;;;;;;;;;-0.88;100.00;99735.16;1729276;82;20167;-68
2022/02/12 04:32:29;;;;;;;;;;;;;;;-0.88;100.00;99740.43;1734185;81;21129;-67
2022/02/12 04:34:57;;;;;;;;;;;;;;;-0.88;100.00;99743.06;1729022;81;20348;-68
2022/02/12 04:37:24;;;;;;;;;;;;;;;-0.87;100.00;99753.10;1734205;82;20130;-68
2022/02/12 04:39:51;;;;;;;;;;;;;;;-0.88;100.00;99749.66;1732902;81;20122;-68
2022/02/12 04:42:17;;;;;;;;;;;;;;;-0.85;100.00;99755.58;1732249;81;20206;-69
2022/02/12 04:44:47;;;;;;;;;;;;;;;-0.84;100.00;99756.70;1728174;81;21100;-67
2022/02/12 04:47:15;;;;;;;;;;;;;;;-0.84;100.00;99758.02;1735227;81;20159;-69
2022/02/12 04:49:42;;;;;;;;;;;;;;;-0.81;100.00;99770.02;1729995;81;20166;-68
2022/02/12 04:52:09;;;;;;;;;;;;;;;-0.81;100.00;99778.74;1728374;82;20083;-67
2022/02/12 04:54:37;;;;;;;;;;;;;;;-0.80;100.00;99776.95;1727262;82;20438;-67
2022/02/12 04:57:04;;;;;;;;;;;;;;;-0.80;100.00;99779.59;1729023;82;21135;-68
2022/02/12 04:59:32;;;;;;;;;;;;;;;-0.77;100.00;99789.78;1726643;82;20119;-66
2022/02/12 05:01:59;;;;;;;;;;;;;;;-0.78;100.00;99785.52;1726454;82;20139;-67
2022/02/12 05:04:25;;;;;;;;;;;;;;;-0.77;100.00;99789.78;1728344;81;20091;-69
2022/02/12 05:06:52;;;;;;;;;;;;;;;-0.77;100.00;99798.50;1728341;81;20107;-68
2022/02/12 05:09:20;;;;;;;;;;;;;;;-0.77;100.00;99803.77;1734320;81;20159;-68
2022/02/12 05:11:48;;;;;;;;;;;;;;;-0.78;100.00;99802.14;1726814;81;20215;-68
2022/02/12 05:14:16;;;;;;;;;;;;;;;-0.75;100.00;99811.52;1717969;81;20131;-66
2022/02/12 05:16:43;;;;;;;;;;;;;;;-0.76;100.00;99819.92;1714863;82;20103;-68
2022/02/12 05:19:10;;;;;;;;;;;;;;;-0.77;100.00;99822.22;1722576;82;20099;-68
2022/02/12 05:21:37;;;;;;;;;;;;;;;-0.78;100.00;99832.45;1724794;81;21919;-68
2022/02/12 05:24:05;;;;;;;;;;;;;;;-0.78;100.00;99837.73;1723708;81;20119;-67
2022/02/12 05:26:31;;;;;;;;;;;;;;;-0.78;100.00;99833.77;1718479;81;20605;-67
2022/02/12 05:28:58;;;;;;;;;;;;;;;-0.77;100.00;99843.30;1718131;81;20101;-68
2022/02/12 05:31:24;;;;;;;;;;;;;;;-0.78;100.00;99843.00;1703088;82;20139;-67
2022/02/12 05:33:51;;;;;;;;;;;;;;;-0.77;100.00;99841.17;1729959;81;21136;-66
2022/02/12 05:36:17;;;;;;;;;;;;;;;-0.78;100.00;99843.00;1722219;82;20075;-68
2022/02/12 05:38:45;;;;;;;;;;;;;;;-0.77;100.00;99848.58;1718882;82;20143;-69
2022/02/12 05:41:15;;;;;;;;;;;;;;;-0.76;100.00;99841.48;1719463;82;20142;-67
2022/02/12 05:43:43;;;;;;;;;;;;;;;-0.72;100.00;99859.42;1723696;81;20099;-68
2022/02/12 05:46:11;;;;;;;;;;;;;;;-0.71;100.00;99861.55;1723420;81;21116;-67
2022/02/12 05:48:38;;;;;;;;;;;;;;;-0.69;100.00;99864.34;1699220;82;20136;-67
2022/02/12 05:51:08;;;;;;;;;;;;;;;-0.70;100.00;99864.53;1726848;82;20127;-68
2022/02/12 05:53:38;;;;;;;;;;;;;;;-0.69;100.00;99866.16;1709224;81;20107;-66
2022/02/12 05:56:05;;;;;;;;;;;;;;;-0.70;100.00;99876.39;1711548;81;20181;-66
2022/02/12 05:58:34;;;;;;;;;;;;;;;-0.72;100.00;99871.79;1720143;81;21223;-72
2022/02/12 06:01:01;;;;;;;;;;;;;;;-0.69;100.00;99874.88;1721904;81;20151;-70
2022/02/12 06:03:27;;;;;;;;;;;;;;;-0.69;100.00;99881.48;1713588;81;20539;-70
2022/02/12 06:05:54;;;;;;;;;;;;;;;-0.67;100.00;99884.77;1721145;81;20139;-69
2022/02/12 06:08:31;;;;;;;;;;;;;;;-0.68;100.00;99891.05;1720656;81;20238;-69
2022/02/12 06:11:04;;;;;;;;;;;;;;;-0.68;100.00;99881.81;1726767;81;21974;-67
2022/02/12 06:13:36;;;;;;;;;;;;;;;-0.64;100.00;99895.46;1732757;81;20099;-69
2022/02/12 06:16:12;;;;;;;;;;;;;;;-0.62;100.00;99892.66;1740966;80;20074;-70
2022/02/12 06:18:50;;;;;;;;;;;;;;;-0.61;100.00;99894.30;1734805;81;20126;-68
2022/02/12 06:21:24;;;;;;;;;;;;;;;-0.59;100.00;99906.81;1737696;81;20554;-69
2022/02/12 06:23:59;;;;;;;;;;;;;;;-0.57;100.00;99919.33;1750100;80;21154;-70
2022/02/12 06:26:31;;;;;;;;;;;;;;;-0.53;100.00;99921.96;1742403;80;20439;-69
2022/02/12 06:28:59;;;;;;;;;;;;;;;-0.49;100.00;99925.87;1733678;81;20187;-69
2022/02/12 06:31:27;;;;;;;;;;;;;;;-0.44;100.00;99939.39;1737935;80;20102;-70
2022/02/12 06:33:54;;;;;;;;;;;;;;;-0.40;100.00;99947.27;1757245;80;20515;-69
2022/02/12 06:36:20;;;;;;;;;;;;;;;-0.33;100.00;99954.81;1715767;80;21871;-71
2022/02/12 06:38:47;;;;;;;;;;;;;;;-0.32;100.00;99949.88;1741257;80;20424;-68
2022/02/12 06:41:13;;;;;;;;;;;;;;;-0.29;100.00;99967.17;1713700;81;20203;-70
2022/02/12 06:43:40;;;;;;;;;;;;;;;-0.31;100.00;99966.52;1739171;81;20218;-69
2022/02/12 06:46:07;;;;;;;;;;;;;;;-0.27;100.00;99971.75;1748055;81;20151;-70
2022/02/12 06:48:36;;;;;;;;;;;;;;;-0.27;100.00;99971.28;1743645;80;21196;-69
2022/02/12 06:51:03;;;;;;;;;;;;;;;-0.25;100.00;99978.50;1742325;81;20244;-70
2022/02/12 06:53:33;;;;;;;;;;;;;;;-0.26;100.00;99983.97;1736315;81;20130;-70
2022/02/12 06:56:02;;;;;;;;;;;;;;;-0.28;100.00;99987.27;1737389;81;20221;-67
2022/02/12 06:58:29;;;;;;;;;;;;;;;-0.27;100.00;99985.79;1744446;81;20209;-73
2022/02/12 07:00:56;;;;;;;;;;;;;;;-0.25;100.00;99994.33;1745985;80;21144;-69
2022/02/12 07:03:23;;;;;;;;;;;;;;;-0.24;100.00;100001.27;1749463;80;20224;-64
2022/02/12 07:05:51;;;;;;;;;;;;;;;-0.26;100.00;100003.75;1744084;80;20543;-65
2022/02/12 07:08:18;;;;;;;;;;;;;;;-0.24;100.00;100009.18;1738836;81;20115;-67
2022/02/12 07:10:44;;;;;;;;;;;;;;;-0.26;100.00;100016.95;1738068;81;20103;-69
2022/02/12 07:13:14;;;;;;;;;;;;;;;-0.25;100.00;100017.25;1716004;82;21226;-68
2022/02/12 07:15:41;;;;;;;;;;;;;;;-0.22;100.00;100040.68;1719363;82;20183;-70
2022/02/12 07:18:08;;;;;;;;;;;;;;;-0.24;100.00;100038.20;1690341;82;20101;-68
2022/02/12 07:20:34;;;;;;;;;;;;;;;-0.25;100.00;100053.69;1715210;82;20156;-69
2022/02/12 07:23:01;;;;;;;;;;;;;;;-0.27;100.00;100049.10;1699820;82;20450;-71
2022/02/12 07:25:29;;;;;;;;;;;;;;;-0.28;100.00;100055.36;1712815;83;20091;-69
2022/02/12 07:27:58;;;;;;;;;;;;;;;-0.30;100.00;100063.12;1713344;82;20095;-69
2022/02/12 07:30:24;;;;;;;;;;;;;;;-0.31;100.00;100068.08;1719338;82;20145;-67
2022/02/12 07:32:51;;;;;;;;;;;;;;;-0.32;100.00;100075.17;1697744;82;20170;-70
2022/02/12 07:35:18;;;;;;;;;;;;;;;-0.32;100.00;100076.49;1716372;81;20385;-68
2022/02/12 07:37:47;;;;;;;;;;;;;;;-0.30;100.00;100080.27;1711284;81;21156;-70
2022/02/12 07:40:15;;;;;;;;;;;;;;;-0.33;100.00;100085.89;1704075;81;20191;-69
2022/02/12 07:42:42;;;;;;;;;;;;;;;-0.30;100.00;100094.27;1705164;83;20155;-69
2022/02/12 07:45:17;;;;;;;;;;;;;;;-0.29;100.00;100099.89;1699705;81;20173;-70
2022/02/12 07:47:49;;;;;;;;;;;;;;;-0.24;100.00;100093.61;1696666;81;20204;-69
2022/02/12 07:50:16;;;;;;;;;;;;;;;-0.20;100.00;100098.53;1695648;81;21176;-69
2022/02/12 07:52:43;;;;;;;;;;;;;;;-0.13;100.00;100104.27;1708748;82;20107;-69
2022/02/12 07:55:11;;;;;;;;;;;;;;;-0.11;100.00;100111.53;1704006;81;20094;-70
2022/02/12 07:57:39;;;;;;;;;;;;;;;-0.08;100.00;100114.32;1709412;82;20078;-69
2022/02/12 08:00:07;;;;;;;;;;;;;;;-0.05;100.00;100116.14;1711325;81;20243;-69
2022/02/12 08:02:38;;;;;;;;;;;;;;;-0.04;100.00;100122.23;1704733;81;20561;-70
2022/02/12 08:05:08;;;;;;;;;;;;;;;-0.03;100.00;100120.72;1695585;83;20144;-68
2022/02/12 08:07:37;;;;;;;;;;;;;;;0.00;100.00;100128.83;1713247;82;20149;-69
2022/02/12 08:11:22;;;;;;;;;;;;;;;0.06;100.00;100129.95;1714659;83;20146;-68
2022/02/12 08:12:36;;;;;;;;;;;;;;;0.10;100.00;100139.16;1709917;82;20158;-69
2022/02/12 08:15:03;;;;;;;;;;;;;;;0.12;100.00;100136.70;1712044;81;21145;-67
2022/02/12 08:17:30;;;;;;;;;;;;;;;0.12;100.00;100138.02;1723360;81;20453;-69
2022/02/12 08:19:58;;;;;;;;;;;;;;;0.17;100.00;100138.80;1730786;81;20151;-69
2022/02/12 08:22:25;;;;;;;;;;;;;;;0.18;100.00;100141.27;1730263;81;20172;-68
2022/02/12 08:24:51;;;;;;;;;;;;;;;0.24;100.00;100146.86;1726363;81;20163;-73
2022/02/12 08:27:21;;;;;;;;;;;;;;;0.25;100.00;100155.13;1731774;81;22240;-70
2022/02/12 08:29:48;;;;;;;;;;;;;;;0.25;100.00;100158.58;1732102;81;20433;-69
2022/02/12 08:32:15;;;;;;;;;;;;;;;0.24;100.00;100162.20;1727128;82;20155;-68
2022/02/12 08:34:43;;;;;;;;;;;;;;;0.32;100.00;100174.06;1726452;81;20151;-68
2022/02/12 08:37:09;;;;;;;;;;;;;;;0.39;100.00;100178.14;1724999;81;20299;-69
2022/02/12 08:39:36;;;;;;;;;;;;;;;0.41;100.00;100184.89;1733314;82;21931;-71
2022/02/12 08:42:07;;;;;;;;;;;;;;;0.40;100.00;100185.91;1731403;81;20576;-71
2022/02/12 08:44:35;;;;;;;;;;;;;;;0.42;100.00;100196.31;1728947;81;20230;-68
2022/02/12 08:47:03;;;;;;;;;;;;;;;0.44;100.00;100202.22;1727133;81;20775;-68
2022/02/12 08:49:30;;;;;;;;;;;;;;;0.47;100.00;100199.75;1730754;82;20122;-70
2022/02/12 08:51:57;;;;;;;;;;;;;;;0.54;100.00;100213.42;1733623;81;21128;-69
2022/02/12 08:54:24;;;;;;;;;;;;;;;0.66;100.00;100216.98;1723025;81;20198;-71
2022/02/12 08:56:51;;;;;;;;;;;;;;;0.69;100.00;100218.80;1722600;81;20118;-69
2022/02/12 08:59:17;;;;;;;;;;;;;;;0.64;100.00;100233.02;1730326;81;20100;-69
2022/02/12 09:01:45;;;;;;;;;;;;;;;0.59;100.00;100238.00;1730424;81;20206;-72
2022/02/12 09:04:11;;;;;;;;;;;;;;;0.54;100.00;100248.23;1734951;81;21847;-69
2022/02/12 09:06:39;;;;;;;;;;;;;;;0.42;100.00;100245.16;1729529;81;20140;-67
2022/02/12 09:09:08;;;;;;;;;;;;;;;0.41;100.00;100253.56;1732299;81;20103;-67
2022/02/12 09:11:34;;;;;;;;;;;;;;;0.38;100.00;100255.73;1734826;82;20607;-71
2022/02/12 09:14:02;;;;;;;;;;;;;;;0.37;100.00;100250.14;1747755;80;20139;-69
2022/02/12 09:16:28;;;;;;;;;;;;;;;0.38;100.00;100265.80;1746359;81;21972;-69
2022/02/12 09:18:55;;;;;;;;;;;;;;;0.40;100.00;100269.60;1745153;80;20134;-67
2022/02/12 09:21:22;;;;;;;;;;;;;;;0.46;100.00;100272.87;1744055;80;20103;-67
2022/02/12 09:23:50;;;;;;;;;;;;;;;0.53;100.00;100275.66;1743610;80;20517;-69
2022/02/12 09:26:20;;;;;;;;;;;;;;;0.61;100.00;100283.07;1746584;80;20189;-71
2022/02/12 09:28:47;;;;;;;;;;;;;;;0.66;100.00;100292.28;1744672;81;21083;-72
2022/02/12 09:31:19;;;;;;;;;;;;;;;0.73;100.00;100290.61;1739825;81;20206;-68
2022/02/12 09:33:45;;;;;;;;;;;;;;;0.78;100.00;100293.05;1740255;82;20207;-68
2022/02/12 09:36:14;;;;;;;;;;;;;;;0.91;100.00;100291.20;1746818;82;20352;-68
2022/02/12 09:38:40;;;;;;;;;;;;;;;1.07;100.00;100297.70;1748746;81;20179;-68
2022/02/12 09:41:07;;;;;;;;;;;;;;;1.09;100.00;100304.16;1748337;80;21175;-68
2022/02/12 09:43:34;;;;;;;;;;;;;;;1.22;100.00;100310.19;1748605;80;20142;-71
2022/02/12 09:46:13;;;;;;;;;;;;;;;1.46;100.00;100317.97;1748252;82;20122;-70
2022/02/12 09:48:42;;;;;;;;;;;;;;;1.58;100.00;100316.25;1748434;80;20210;-67
2022/02/12 09:51:09;;;;;;;;;;;;;;;1.59;100.00;100321.35;1745479;82;20158;-70
2022/02/12 09:53:35;;;;;;;;;;;;;;;1.80;100.00;100326.00;1742632;82;21083;-68
2022/02/12 09:56:01;;;;;;;;;;;;;;;1.61;100.00;100323.83;1728147;83;20095;-67
2022/02/12 09:58:28;;;;;;;;;;;;;;;1.47;100.00;100327.58;1728470;83;20110;-69
2022/02/12 10:00:54;;;;;;;;;;;;;;;1.41;100.00;100322.15;1700210;84;20153;-69
2022/02/12 10:03:22;;;;;;;;;;;;;;;1.37;100.00;100328.30;1728145;83;20465;-69
2022/02/12 10:05:51;;;;;;;;;;;;;;;1.30;100.00;100331.32;1728015;83;21936;-69
2022/02/12 10:08:18;;;;;;;;;;;;;;;1.25;100.00;100340.25;1728100;83;20099;-68
2022/02/12 10:10:47;;;;;;;;;;;;;;;1.11;100.00;100334.39;1728102;83;20196;-66
2022/02/12 10:13:23;;;;;;;;;;;;;;;1.09;100.00;100327.13;1728120;81;20159;-67
2022/02/12 10:16:01;;;;;;;;;;;;;;;1.04;100.00;100339.54;1734614;81;20159;-70
2022/02/12 10:18:35;;;;;;;;;;;;;;;1.05;100.00;100353.08;1735068;82;21157;-68
2022/02/12 10:21:02;;;;;;;;;;;;;;;1.08;100.00;100346.14;1735242;82;20349;-67
2022/02/12 10:23:30;;;;;;;;;;;;;;;1.03;100.00;100356.41;1735304;82;20226;-71
2022/02/12 10:26:06;;;;;;;;;;;;;;;1.03;100.00;100356.41;1735114;82;20156;-69
2022/02/12 10:28:42;;;;;;;;;;;;;;;1.09;100.00;100366.79;1706107;82;20131;-69
2022/02/12 10:31:09;;;;;;;;;;;;;;;1.06;100.00;100371.42;1707648;84;22398;-71
2022/02/12 10:33:45;;;;;;;;;;;;;;;1.08;100.00;100360.69;1724017;82;20187;-69
2022/02/12 10:36:14;;;;;;;;;;;;;;;1.09;100.00;100360.18;1732049;81;20154;-70
2022/02/12 10:38:47;;;;;;;;;;;;;;;1.12;100.00;100367.26;1736478;81;20500;-70
2022/02/12 10:41:16;;;;;;;;;;;;;;;1.18;100.00;100368.41;1736468;82;20174;-71
2022/02/12 10:43:44;;;;;;;;;;;;;;;1.23;100.00;100377.97;1735896;81;20730;-69
2022/02/12 10:46:10;;;;;;;;;;;;;;;1.33;100.00;100369.82;1736703;80;20155;-68
2022/02/12 10:48:38;;;;;;;;;;;;;;;1.44;100.00;100374.20;1744654;81;20448;-68
2022/02/12 10:51:11;;;;;;;;;;;;;;;1.73;100.00;100380.64;1732021;81;20208;-68
2022/02/12 10:53:37;;;;;;;;;;;;;;;1.88;100.00;100380.20;1735654;82;20253;-70
2022/02/12 10:56:04;;;;;;;;;;;;;;;1.98;100.00;100390.55;1736019;81;21166;-68
2022/02/12 10:58:31;;;;;;;;;;;;;;;1.89;100.00;100395.61;1733085;81;20157;-67
2022/02/12 11:00:57;;;;;;;;;;;;;;;1.74;100.00;100406.61;1736384;81;20222;-68
2022/02/12 11:03:25;;;;;;;;;;;;;;;1.56;100.00;100395.80;1736358;81;20193;-67
2022/02/12 11:05:53;;;;;;;;;;;;;;;1.52;100.00;100405.58;1733533;81;20182;-66
2022/02/12 11:08:22;;;;;;;;;;;;;;;1.51;100.00;100414.02;1736294;81;21136;-69
2022/02/12 11:10:49;;;;;;;;;;;;;;;1.44;100.00;100417.84;1735191;81;20158;-69
2022/02/12 11:13:15;;;;;;;;;;;;;;;1.34;100.00;100421.21;1719044;81;20094;-70
2022/02/12 11:15:45;;;;;;;;;;;;;;;1.38;100.00;100421.70;1706794;82;20142;-70
2022/02/12 11:18:17;;;;;;;;;;;;;;;1.39;100.00;100428.63;1707025;82;20259;-69
2022/02/12 11:20:44;;;;;;;;;;;;;;;1.30;100.00;100423.89;1707297;82;21863;-69
2022/02/12 11:23:30;;;;;;;;;;;;;;;1.02;100.00;100426.95;1706725;82;20185;-68
2022/02/12 11:26:08;;;;;;;;;;;;;;;0.96;100.00;100436.89;1705646;82;20172;-69
2022/02/12 11:28:41;;;;;;;;;;;;;;;0.98;100.00;100438.03;1706385;82;20164;-69
2022/02/12 11:31:24;;;;;;;;;;;;;;;1.02;100.00;100443.31;1705958;82;20251;-72
2022/02/12 11:34:13;;;;;;;;;;;;;;;1.10;100.00;100445.92;1707368;84;21116;-71
2022/02/12 11:36:46;;;;;;;;;;;;;;;1.17;100.00;100452.19;1707787;84;20176;-69
2022/02/12 11:39:18;;;;;;;;;;;;;;;1.32;100.00;100452.80;1707602;83;20149;-69
2022/02/12 11:41:49;;;;;;;;;;;;;;;1.35;100.00;100459.91;1705273;82;20538;-69
2022/02/12 11:44:43;;;;;;;;;;;;;;;1.33;100.00;100452.64;1708006;84;20251;-66
2022/02/12 11:47:13;;;;;;;;;;;;;;;1.35;100.00;100467.84;1705318;82;20566;-70
2022/02/12 11:49:41;;;;;;;;;;;;;;;1.22;100.00;100468.36;1703409;82;20523;-69
2022/02/12 11:52:21;;;;;;;;;;;;;;;1.02;100.00;100470.57;1708218;84;20193;-71
2022/02/12 11:55:00;;;;;;;;;;;;;;;0.82;100.00;100477.23;1706164;84;20185;-68
2022/02/12 11:57:31;;;;;;;;;;;;;;;0.63;100.00;100485.82;1704496;83;20664;-69
2022/02/12 12:00:07;;;;;;;;;;;;;;;0.47;100.00;100481.89;1704271;84;21117;-67
2022/02/12 12:02:42;;;;;;;;;;;;;;;0.43;100.00;100485.34;1707686;82;20299;-71
2022/02/12 12:05:17;;;;;;;;;;;;;;;0.41;100.00;100495.23;1707854;82;20185;-71
2022/02/12 12:08:06;;;;;;;;;;;;;;;0.48;100.00;100494.59;1705742;82;20105;-69
2022/02/12 12:10:35;;;;;;;;;;;;;;;0.52;100.00;100491.46;1703208;82;20243;-70
2022/02/12 12:13:15;;;;;;;;;;;;;;;0.67;100.00;100496.08;1698155;83;21130;-67
2022/02/12 12:15:49;;;;;;;;;;;;;;;0.89;100.00;100491.94;1700058;84;20164;-68
2022/02/12 12:18:19;;;;;;;;;;;;;;;1.81;100.00;100490.95;1684413;83;20209;-69
2022/02/12 12:20:47;;;;;;;;;;;;;;;2.64;100.00;100487.55;1699489;84;20207;-70
2022/02/12 12:23:22;;;;;;;;;;;;;;;3.18;100.00;100493.98;1705169;82;20183;-67
2022/02/12 12:26:01;;;;;;;;;;;;;;;3.65;100.00;100484.83;1707650;84;21808;-71
2022/02/12 12:28:40;;;;;;;;;;;;;;;3.60;100.00;100491.20;1701452;82;20557;-70
2022/02/12 12:31:10;;;;;;;;;;;;;;;3.80;100.00;100502.06;1707527;82;20171;-66
2022/02/12 12:33:44;;;;;;;;;;;;;;;3.98;100.00;100506.96;1707859;83;20248;-72
2022/02/12 12:36:16;;;;;;;;;;;;;;;3.87;100.00;100507.44;1707190;84;20200;-71
2022/02/12 12:38:50;;;;;;;;;;;;;;;4.05;100.00;100514.50;1705832;82;21904;-70
2022/02/12 12:41:33;;;;;;;;;;;;;;;4.33;100.00;100520.41;1703983;83;20180;-71
2022/02/12 12:44:19;;;;;;;;;;;;;;;4.29;100.00;100519.16;1701918;84;20226;-70
2022/02/12 12:46:49;;;;;;;;;;;;;;;4.13;100.00;100521.53;1704286;82;20457;-69
2022/02/12 12:49:40;;;;;;;;;;;;;;;4.26;100.00;100528.34;1706394;82;20245;-71
2022/02/12 12:52:11;;;;;;;;;;;;;;;4.67;100.00;100536.18;1707062;82;21133;-68